sensor_id;sensor_type;location;lat;lon;timestamp;P1;durP1;ratioP1;P2;durP2;ratioP2
56269;SDS011;42176;43.240;27.880;2022-08-24T00:02:19;21.63;;;6.85;;
56269;SDS011;42176;43.240;27.880;2022-08-24T00:04:44;23.48;;;7.45;;
56269;SDS011;42176;43.240;27.880;2022-08-24T00:07:11;26.75;;;7.90;;
56269;SDS011;42176;43.240;27.880;2022-08-24T00:09:37;26.42;;;7.75;;
56269;SDS011;42176;43.240;27.880;2022-08-24T00:12:03;36.17;;;7.88;;
56269;SDS011;42176;43.240;27.880;2022-08-24T00:14:29;29.52;;;6.95;;
56269;SDS011;42176;43.240;27.880;2022-08-24T00:16:55;30.27;;;7.72;;
56269;SDS011;42176;43.240;27.880;2022-08-24T00:19:22;28.15;;;7.70;;
56269;SDS011;42176;43.240;27.880;2022-08-24T00:21:48;22.80;;;6.53;;
56269;SDS011;42176;43.240;27.880;2022-08-24T00:24:14;29.10;;;7.07;;
56269;SDS011;42176;43.240;27.880;2022-08-24T00:26:40;25.45;;;6.30;;
56269;SDS011;42176;43.240;27.880;2022-08-24T00:29:05;22.52;;;6.45;;
56269;SDS011;42176;43.240;27.880;2022-08-24T00:31:31;31.73;;;7.20;;
56269;SDS011;42176;43.240;27.880;2022-08-24T00:33:56;22.92;;;6.72;;
56269;SDS011;42176;43.240;27.880;2022-08-24T00:36:23;24.63;;;6.28;;
56269;SDS011;42176;43.240;27.880;2022-08-24T00:38:49;28.13;;;8.52;;
56269;SDS011;42176;43.240;27.880;2022-08-24T00:41:14;30.48;;;7.10;;
56269;SDS011;42176;43.240;27.880;2022-08-24T00:43:54;18.73;;;7.00;;
56269;SDS011;42176;43.240;27.880;2022-08-24T00:49:10;24.13;;;7.30;;
56269;SDS011;42176;43.240;27.880;2022-08-24T00:52:19;27.85;;;7.47;;
56269;SDS011;42176;43.240;27.880;2022-08-24T00:54:46;21.17;;;7.13;;
56269;SDS011;42176;43.240;27.880;2022-08-24T00:57:18;29.65;;;8.52;;
56269;SDS011;42176;43.240;27.880;2022-08-24T00:59:48;25.98;;;8.07;;
56269;SDS011;42176;43.240;27.880;2022-08-24T01:02:18;25.23;;;8.70;;
56269;SDS011;42176;43.240;27.880;2022-08-24T01:04:54;25.98;;;7.47;;
56269;SDS011;42176;43.240;27.880;2022-08-24T01:07:24;19.65;;;6.50;;
56269;SDS011;42176;43.240;27.880;2022-08-24T01:09:51;20.42;;;7.70;;
56269;SDS011;42176;43.240;27.880;2022-08-24T01:12:20;23.27;;;8.55;;
56269;SDS011;42176;43.240;27.880;2022-08-24T01:14:46;29.17;;;8.00;;
56269;SDS011;42176;43.240;27.880;2022-08-24T01:17:12;23.35;;;7.43;;
56269;SDS011;42176;43.240;27.880;2022-08-24T01:19:56;23.92;;;7.32;;
56269;SDS011;42176;43.240;27.880;2022-08-24T01:22:33;22.00;;;7.43;;
56269;SDS011;42176;43.240;27.880;2022-08-24T01:25:08;26.40;;;7.38;;
56269;SDS011;42176;43.240;27.880;2022-08-24T01:27:34;23.13;;;7.55;;
56269;SDS011;42176;43.240;27.880;2022-08-24T01:30:02;23.45;;;8.85;;
56269;SDS011;42176;43.240;27.880;2022-08-24T01:32:30;28.83;;;8.18;;
56269;SDS011;42176;43.240;27.880;2022-08-24T01:34:56;30.55;;;8.05;;
56269;SDS011;42176;43.240;27.880;2022-08-24T01:37:22;33.72;;;8.35;;
56269;SDS011;42176;43.240;27.880;2022-08-24T01:39:49;22.85;;;8.48;;
56269;SDS011;42176;43.240;27.880;2022-08-24T01:42:19;23.55;;;8.30;;
56269;SDS011;42176;43.240;27.880;2022-08-24T01:44:45;20.55;;;7.30;;
56269;SDS011;42176;43.240;27.880;2022-08-24T01:47:11;38.65;;;10.13;;
56269;SDS011;42176;43.240;27.880;2022-08-24T01:49:42;29.13;;;7.50;;
56269;SDS011;42176;43.240;27.880;2022-08-24T01:52:11;31.75;;;7.53;;
56269;SDS011;42176;43.240;27.880;2022-08-24T01:54:41;28.65;;;7.93;;
56269;SDS011;42176;43.240;27.880;2022-08-24T01:57:07;29.77;;;7.70;;
56269;SDS011;42176;43.240;27.880;2022-08-24T01:59:33;30.77;;;7.00;;
56269;SDS011;42176;43.240;27.880;2022-08-24T02:04:55;26.08;;;7.57;;
56269;SDS011;42176;43.240;27.880;2022-08-24T02:07:21;28.65;;;7.55;;
56269;SDS011;42176;43.240;27.880;2022-08-24T02:09:47;28.70;;;7.25;;
56269;SDS011;42176;43.240;27.880;2022-08-24T02:12:12;29.42;;;8.98;;
56269;SDS011;42176;43.240;27.880;2022-08-24T02:14:39;28.25;;;6.93;;
56269;SDS011;42176;43.240;27.880;2022-08-24T02:17:06;26.70;;;6.97;;
56269;SDS011;42176;43.240;27.880;2022-08-24T02:19:33;33.70;;;7.78;;
56269;SDS011;42176;43.240;27.880;2022-08-24T02:21:59;36.88;;;7.70;;
56269;SDS011;42176;43.240;27.880;2022-08-24T02:24:26;37.10;;;7.10;;
56269;SDS011;42176;43.240;27.880;2022-08-24T02:26:52;30.92;;;6.50;;
56269;SDS011;42176;43.240;27.880;2022-08-24T02:29:18;29.60;;;7.50;;
56269;SDS011;42176;43.240;27.880;2022-08-24T02:31:43;31.63;;;6.45;;
56269;SDS011;42176;43.240;27.880;2022-08-24T02:34:09;36.60;;;6.43;;
56269;SDS011;42176;43.240;27.880;2022-08-24T02:36:34;34.95;;;7.43;;
56269;SDS011;42176;43.240;27.880;2022-08-24T02:39:00;44.83;;;7.22;;
56269;SDS011;42176;43.240;27.880;2022-08-24T02:41:26;34.30;;;7.53;;
56269;SDS011;42176;43.240;27.880;2022-08-24T02:43:52;39.17;;;7.00;;
56269;SDS011;42176;43.240;27.880;2022-08-24T02:46:19;42.15;;;7.22;;
56269;SDS011;42176;43.240;27.880;2022-08-24T02:48:49;45.40;;;7.70;;
56269;SDS011;42176;43.240;27.880;2022-08-24T02:51:21;38.70;;;6.95;;
56269;SDS011;42176;43.240;27.880;2022-08-24T02:53:49;40.22;;;6.28;;
56269;SDS011;42176;43.240;27.880;2022-08-24T02:56:15;28.65;;;6.93;;
56269;SDS011;42176;43.240;27.880;2022-08-24T02:58:41;37.65;;;7.18;;
56269;SDS011;42176;43.240;27.880;2022-08-24T03:01:08;32.58;;;6.07;;
56269;SDS011;42176;43.240;27.880;2022-08-24T03:03:35;40.65;;;7.32;;
56269;SDS011;42176;43.240;27.880;2022-08-24T03:06:00;45.22;;;7.28;;
56269;SDS011;42176;43.240;27.880;2022-08-24T03:08:26;40.10;;;7.13;;
56269;SDS011;42176;43.240;27.880;2022-08-24T03:10:51;32.75;;;6.97;;
56269;SDS011;42176;43.240;27.880;2022-08-24T03:13:17;39.75;;;6.57;;
56269;SDS011;42176;43.240;27.880;2022-08-24T03:15:42;45.35;;;7.03;;
56269;SDS011;42176;43.240;27.880;2022-08-24T03:18:10;40.65;;;6.60;;
56269;SDS011;42176;43.240;27.880;2022-08-24T03:20:36;51.28;;;7.00;;
56269;SDS011;42176;43.240;27.880;2022-08-24T03:23:02;42.67;;;5.80;;
56269;SDS011;42176;43.240;27.880;2022-08-24T03:25:29;38.63;;;6.45;;
56269;SDS011;42176;43.240;27.880;2022-08-24T03:27:55;38.38;;;6.88;;
56269;SDS011;42176;43.240;27.880;2022-08-24T03:30:21;42.10;;;8.30;;
56269;SDS011;42176;43.240;27.880;2022-08-24T03:32:47;47.55;;;5.88;;
56269;SDS011;42176;43.240;27.880;2022-08-24T03:35:12;44.30;;;7.25;;
56269;SDS011;42176;43.240;27.880;2022-08-24T03:37:40;34.25;;;7.05;;
56269;SDS011;42176;43.240;27.880;2022-08-24T03:40:06;38.42;;;7.95;;
56269;SDS011;42176;43.240;27.880;2022-08-24T03:42:33;34.38;;;7.00;;
56269;SDS011;42176;43.240;27.880;2022-08-24T03:44:59;33.03;;;5.70;;
56269;SDS011;42176;43.240;27.880;2022-08-24T03:47:24;42.58;;;6.80;;
56269;SDS011;42176;43.240;27.880;2022-08-24T03:49:50;44.78;;;7.85;;
56269;SDS011;42176;43.240;27.880;2022-08-24T03:52:15;40.50;;;7.18;;
56269;SDS011;42176;43.240;27.880;2022-08-24T03:54:41;34.45;;;6.75;;
56269;SDS011;42176;43.240;27.880;2022-08-24T03:57:06;36.60;;;6.65;;
56269;SDS011;42176;43.240;27.880;2022-08-24T03:59:32;37.65;;;6.25;;
56269;SDS011;42176;43.240;27.880;2022-08-24T04:01:57;29.58;;;5.68;;
56269;SDS011;42176;43.240;27.880;2022-08-24T04:04:23;26.92;;;5.60;;
56269;SDS011;42176;43.240;27.880;2022-08-24T04:06:49;28.52;;;5.28;;
56269;SDS011;42176;43.240;27.880;2022-08-24T04:09:15;40.95;;;6.05;;
56269;SDS011;42176;43.240;27.880;2022-08-24T04:11:41;27.85;;;5.93;;
56269;SDS011;42176;43.240;27.880;2022-08-24T04:14:09;38.85;;;5.63;;
56269;SDS011;42176;43.240;27.880;2022-08-24T04:16:35;28.90;;;5.07;;
56269;SDS011;42176;43.240;27.880;2022-08-24T04:19:00;38.22;;;6.10;;
56269;SDS011;42176;43.240;27.880;2022-08-24T04:21:30;37.83;;;5.43;;
56269;SDS011;42176;43.240;27.880;2022-08-24T04:23:57;35.45;;;5.60;;
56269;SDS011;42176;43.240;27.880;2022-08-24T04:26:23;34.25;;;4.68;;
56269;SDS011;42176;43.240;27.880;2022-08-24T04:28:51;39.80;;;5.07;;
56269;SDS011;42176;43.240;27.880;2022-08-24T04:31:16;35.15;;;6.35;;
56269;SDS011;42176;43.240;27.880;2022-08-24T04:33:43;34.40;;;5.97;;
56269;SDS011;42176;43.240;27.880;2022-08-24T04:36:09;31.00;;;5.45;;
56269;SDS011;42176;43.240;27.880;2022-08-24T04:38:36;38.17;;;5.22;;
56269;SDS011;42176;43.240;27.880;2022-08-24T04:41:05;15.70;;;3.50;;
56269;SDS011;42176;43.240;27.880;2022-08-24T04:43:34;23.30;;;4.63;;
56269;SDS011;42176;43.240;27.880;2022-08-24T04:46:02;34.88;;;5.35;;
56269;SDS011;42176;43.240;27.880;2022-08-24T04:48:29;29.15;;;4.60;;
56269;SDS011;42176;43.240;27.880;2022-08-24T04:50:59;31.48;;;5.35;;
56269;SDS011;42176;43.240;27.880;2022-08-24T04:53:27;16.85;;;4.10;;
56269;SDS011;42176;43.240;27.880;2022-08-24T04:55:52;27.35;;;5.05;;
56269;SDS011;42176;43.240;27.880;2022-08-24T04:58:18;35.15;;;5.70;;
56269;SDS011;42176;43.240;27.880;2022-08-24T05:00:44;36.08;;;8.82;;
56269;SDS011;42176;43.240;27.880;2022-08-24T05:03:10;32.05;;;4.13;;
56269;SDS011;42176;43.240;27.880;2022-08-24T05:05:45;19.63;;;4.13;;
56269;SDS011;42176;43.240;27.880;2022-08-24T05:08:13;23.70;;;3.60;;
56269;SDS011;42176;43.240;27.880;2022-08-24T05:10:40;28.75;;;4.50;;
56269;SDS011;42176;43.240;27.880;2022-08-24T05:13:08;24.38;;;5.47;;
56269;SDS011;42176;43.240;27.880;2022-08-24T05:15:35;35.92;;;4.80;;
56269;SDS011;42176;43.240;27.880;2022-08-24T05:18:04;25.33;;;4.90;;
56269;SDS011;42176;43.240;27.880;2022-08-24T05:20:31;29.65;;;5.32;;
56269;SDS011;42176;43.240;27.880;2022-08-24T05:22:57;36.95;;;4.20;;
56269;SDS011;42176;43.240;27.880;2022-08-24T05:25:23;18.05;;;4.38;;
56269;SDS011;42176;43.240;27.880;2022-08-24T05:27:48;31.90;;;4.35;;
56269;SDS011;42176;43.240;27.880;2022-08-24T05:30:15;24.77;;;5.25;;
56269;SDS011;42176;43.240;27.880;2022-08-24T05:32:41;24.35;;;4.60;;
56269;SDS011;42176;43.240;27.880;2022-08-24T05:35:07;20.80;;;4.47;;
56269;SDS011;42176;43.240;27.880;2022-08-24T05:37:34;37.30;;;5.85;;
56269;SDS011;42176;43.240;27.880;2022-08-24T05:40:04;31.88;;;4.10;;
56269;SDS011;42176;43.240;27.880;2022-08-24T05:42:33;27.60;;;4.68;;
56269;SDS011;42176;43.240;27.880;2022-08-24T05:44:59;16.83;;;4.28;;
56269;SDS011;42176;43.240;27.880;2022-08-24T05:47:25;34.90;;;5.13;;
56269;SDS011;42176;43.240;27.880;2022-08-24T05:49:50;23.50;;;4.35;;
56269;SDS011;42176;43.240;27.880;2022-08-24T05:52:18;23.52;;;4.95;;
56269;SDS011;42176;43.240;27.880;2022-08-24T05:54:53;31.75;;;5.25;;
56269;SDS011;42176;43.240;27.880;2022-08-24T05:57:21;17.55;;;4.15;;
56269;SDS011;42176;43.240;27.880;2022-08-24T05:59:47;21.55;;;4.13;;
56269;SDS011;42176;43.240;27.880;2022-08-24T06:02:13;33.22;;;5.03;;
56269;SDS011;42176;43.240;27.880;2022-08-24T06:04:39;34.08;;;4.53;;
56269;SDS011;42176;43.240;27.880;2022-08-24T06:07:05;27.40;;;5.45;;
56269;SDS011;42176;43.240;27.880;2022-08-24T06:09:33;29.17;;;4.55;;
56269;SDS011;42176;43.240;27.880;2022-08-24T06:11:58;27.73;;;4.85;;
56269;SDS011;42176;43.240;27.880;2022-08-24T06:14:24;32.40;;;5.07;;
56269;SDS011;42176;43.240;27.880;2022-08-24T06:16:50;46.45;;;5.95;;
56269;SDS011;42176;43.240;27.880;2022-08-24T06:19:17;42.03;;;9.90;;
56269;SDS011;42176;43.240;27.880;2022-08-24T06:21:44;37.30;;;5.35;;
56269;SDS011;42176;43.240;27.880;2022-08-24T06:24:11;36.95;;;6.63;;
56269;SDS011;42176;43.240;27.880;2022-08-24T06:26:39;30.48;;;4.57;;
56269;SDS011;42176;43.240;27.880;2022-08-24T06:29:24;44.08;;;6.88;;
56269;SDS011;42176;43.240;27.880;2022-08-24T06:31:49;36.53;;;6.32;;
56269;SDS011;42176;43.240;27.880;2022-08-24T06:34:16;54.28;;;6.70;;
56269;SDS011;42176;43.240;27.880;2022-08-24T06:36:43;38.17;;;6.32;;
56269;SDS011;42176;43.240;27.880;2022-08-24T06:39:09;43.05;;;6.95;;
56269;SDS011;42176;43.240;27.880;2022-08-24T06:41:35;33.50;;;5.10;;
56269;SDS011;42176;43.240;27.880;2022-08-24T06:44:01;44.20;;;6.63;;
56269;SDS011;42176;43.240;27.880;2022-08-24T06:46:28;33.90;;;5.32;;
56269;SDS011;42176;43.240;27.880;2022-08-24T06:48:56;41.20;;;5.97;;
56269;SDS011;42176;43.240;27.880;2022-08-24T06:51:22;41.60;;;5.78;;
56269;SDS011;42176;43.240;27.880;2022-08-24T06:53:48;45.95;;;5.90;;
56269;SDS011;42176;43.240;27.880;2022-08-24T06:56:14;47.10;;;5.93;;
56269;SDS011;42176;43.240;27.880;2022-08-24T06:58:41;52.08;;;6.75;;
56269;SDS011;42176;43.240;27.880;2022-08-24T07:01:11;45.70;;;5.93;;
56269;SDS011;42176;43.240;27.880;2022-08-24T07:03:44;50.80;;;6.70;;
56269;SDS011;42176;43.240;27.880;2022-08-24T07:06:10;42.95;;;7.13;;
56269;SDS011;42176;43.240;27.880;2022-08-24T07:08:38;41.88;;;6.45;;
56269;SDS011;42176;43.240;27.880;2022-08-24T07:11:06;46.75;;;5.82;;
56269;SDS011;42176;43.240;27.880;2022-08-24T07:13:33;62.05;;;8.70;;
56269;SDS011;42176;43.240;27.880;2022-08-24T07:15:59;50.53;;;7.03;;
56269;SDS011;42176;43.240;27.880;2022-08-24T07:18:25;42.72;;;5.47;;
56269;SDS011;42176;43.240;27.880;2022-08-24T07:20:52;46.85;;;6.10;;
56269;SDS011;42176;43.240;27.880;2022-08-24T07:23:19;60.88;;;7.15;;
56269;SDS011;42176;43.240;27.880;2022-08-24T07:25:45;55.60;;;6.93;;
56269;SDS011;42176;43.240;27.880;2022-08-24T07:28:12;63.00;;;7.07;;
56269;SDS011;42176;43.240;27.880;2022-08-24T07:30:38;61.33;;;6.00;;
56269;SDS011;42176;43.240;27.880;2022-08-24T07:33:05;46.35;;;8.50;;
56269;SDS011;42176;43.240;27.880;2022-08-24T07:35:34;51.40;;;6.68;;
56269;SDS011;42176;43.240;27.880;2022-08-24T07:38:01;41.88;;;6.38;;
56269;SDS011;42176;43.240;27.880;2022-08-24T07:40:30;61.65;;;7.78;;
56269;SDS011;42176;43.240;27.880;2022-08-24T07:42:57;32.55;;;6.65;;
56269;SDS011;42176;43.240;27.880;2022-08-24T07:45:23;49.08;;;7.57;;
56269;SDS011;42176;43.240;27.880;2022-08-24T07:47:50;51.70;;;6.07;;
56269;SDS011;42176;43.240;27.880;2022-08-24T07:50:17;52.58;;;6.65;;
56269;SDS011;42176;43.240;27.880;2022-08-24T07:52:43;44.05;;;7.05;;
56269;SDS011;42176;43.240;27.880;2022-08-24T07:55:13;46.85;;;6.63;;
56269;SDS011;42176;43.240;27.880;2022-08-24T07:57:43;47.42;;;6.25;;
56269;SDS011;42176;43.240;27.880;2022-08-24T08:00:11;49.85;;;6.10;;
56269;SDS011;42176;43.240;27.880;2022-08-24T08:02:39;52.75;;;7.35;;
56269;SDS011;42176;43.240;27.880;2022-08-24T08:05:07;55.97;;;8.38;;
56269;SDS011;42176;43.240;27.880;2022-08-24T08:07:33;45.47;;;6.97;;
56269;SDS011;42176;43.240;27.880;2022-08-24T08:10:01;55.90;;;6.30;;
56269;SDS011;42176;43.240;27.880;2022-08-24T08:12:27;57.17;;;6.95;;
56269;SDS011;42176;43.240;27.880;2022-08-24T08:14:53;42.17;;;6.90;;
56269;SDS011;42176;43.240;27.880;2022-08-24T08:17:18;41.78;;;5.97;;
56269;SDS011;42176;43.240;27.880;2022-08-24T08:19:47;40.70;;;5.75;;
56269;SDS011;42176;43.240;27.880;2022-08-24T08:22:12;53.22;;;6.07;;
56269;SDS011;42176;43.240;27.880;2022-08-24T08:24:56;55.53;;;6.63;;
56269;SDS011;42176;43.240;27.880;2022-08-24T08:27:22;47.75;;;5.20;;
56269;SDS011;42176;43.240;27.880;2022-08-24T08:29:49;54.30;;;6.25;;
56269;SDS011;42176;43.240;27.880;2022-08-24T08:32:15;46.70;;;6.35;;
56269;SDS011;42176;43.240;27.880;2022-08-24T08:34:42;53.42;;;6.10;;
56269;SDS011;42176;43.240;27.880;2022-08-24T08:37:09;53.10;;;6.22;;
56269;SDS011;42176;43.240;27.880;2022-08-24T08:39:35;34.55;;;4.57;;
56269;SDS011;42176;43.240;27.880;2022-08-24T08:47:50;35.03;;;4.93;;
56269;SDS011;42176;43.240;27.880;2022-08-24T08:53:50;42.30;;;5.15;;
56269;SDS011;42176;43.240;27.880;2022-08-24T09:04:53;44.95;;;5.85;;
56269;SDS011;42176;43.240;27.880;2022-08-24T09:07:49;34.33;;;5.40;;
56269;SDS011;42176;43.240;27.880;2022-08-24T09:10:27;34.67;;;5.70;;
56269;SDS011;42176;43.240;27.880;2022-08-24T09:13:06;42.00;;;5.65;;
56269;SDS011;42176;43.240;27.880;2022-08-24T09:18:34;44.35;;;5.75;;
56269;SDS011;42176;43.240;27.880;2022-08-24T09:24:02;44.17;;;5.13;;
56269;SDS011;42176;43.240;27.880;2022-08-24T09:29:22;32.33;;;6.00;;
56269;SDS011;42176;43.240;27.880;2022-08-24T09:32:24;31.63;;;5.10;;
56269;SDS011;42176;43.240;27.880;2022-08-24T09:34:54;46.08;;;6.13;;
56269;SDS011;42176;43.240;27.880;2022-08-24T09:40:21;36.42;;;5.97;;
56269;SDS011;42176;43.240;27.880;2022-08-24T09:43:28;34.08;;;5.20;;
56269;SDS011;42176;43.240;27.880;2022-08-24T09:49:12;32.17;;;6.75;;
56269;SDS011;42176;43.240;27.880;2022-08-24T09:57:53;40.30;;;6.40;;
56269;SDS011;42176;43.240;27.880;2022-08-24T10:14:48;49.38;;;7.85;;
56269;SDS011;42176;43.240;27.880;2022-08-24T10:17:44;52.97;;;6.47;;
56269;SDS011;42176;43.240;27.880;2022-08-24T10:34:45;40.85;;;5.57;;
56269;SDS011;42176;43.240;27.880;2022-08-24T10:40:06;32.35;;;5.50;;
56269;SDS011;42176;43.240;27.880;2022-08-24T10:43:00;39.08;;;6.10;;
56269;SDS011;42176;43.240;27.880;2022-08-24T10:51:33;37.08;;;5.88;;
56269;SDS011;42176;43.240;27.880;2022-08-24T10:54:09;50.75;;;7.47;;
56269;SDS011;42176;43.240;27.880;2022-08-24T10:56:41;62.72;;;7.35;;
56269;SDS011;42176;43.240;27.880;2022-08-24T11:00:08;45.83;;;7.18;;
56269;SDS011;42176;43.240;27.880;2022-08-24T11:02:28;43.92;;;6.88;;
56269;SDS011;42176;43.240;27.880;2022-08-24T11:04:58;40.28;;;6.82;;
56269;SDS011;42176;43.240;27.880;2022-08-24T11:07:26;51.92;;;8.27;;
56269;SDS011;42176;43.240;27.880;2022-08-24T11:12:26;42.78;;;6.68;;
56269;SDS011;42176;43.240;27.880;2022-08-24T11:14:52;45.38;;;6.45;;
56269;SDS011;42176;43.240;27.880;2022-08-24T11:17:25;36.63;;;6.03;;
56269;SDS011;42176;43.240;27.880;2022-08-24T11:19:52;49.70;;;6.95;;
56269;SDS011;42176;43.240;27.880;2022-08-24T11:27:50;51.88;;;6.18;;
56269;SDS011;42176;43.240;27.880;2022-08-24T11:30:23;31.63;;;5.10;;
56269;SDS011;42176;43.240;27.880;2022-08-24T11:32:59;42.88;;;5.47;;
56269;SDS011;42176;43.240;27.880;2022-08-24T11:35:33;55.03;;;6.63;;
56269;SDS011;42176;43.240;27.880;2022-08-24T11:41:18;39.05;;;5.28;;
56269;SDS011;42176;43.240;27.880;2022-08-24T11:44:04;29.45;;;5.15;;
56269;SDS011;42176;43.240;27.880;2022-08-24T11:47:01;46.80;;;4.82;;
56269;SDS011;42176;43.240;27.880;2022-08-24T11:56:01;30.15;;;6.10;;
56269;SDS011;42176;43.240;27.880;2022-08-24T12:09:27;30.02;;;5.32;;
56269;SDS011;42176;43.240;27.880;2022-08-24T12:12:26;29.08;;;7.40;;
56269;SDS011;42176;43.240;27.880;2022-08-24T12:15:19;37.10;;;5.13;;
56269;SDS011;42176;43.240;27.880;2022-08-24T12:20:47;37.35;;;5.85;;
56269;SDS011;42176;43.240;27.880;2022-08-24T12:28:33;50.70;;;5.93;;
56269;SDS011;42176;43.240;27.880;2022-08-24T12:32:06;35.42;;;4.40;;
56269;SDS011;42176;43.240;27.880;2022-08-24T12:34:20;28.88;;;5.60;;
56269;SDS011;42176;43.240;27.880;2022-08-24T12:37:00;29.33;;;5.03;;
56269;SDS011;42176;43.240;27.880;2022-08-24T12:42:49;32.58;;;5.15;;
56269;SDS011;42176;43.240;27.880;2022-08-24T12:45:35;24.98;;;4.05;;
56269;SDS011;42176;43.240;27.880;2022-08-24T13:02:52;21.90;;;3.63;;
56269;SDS011;42176;43.240;27.880;2022-08-24T13:04:58;25.63;;;4.00;;
56269;SDS011;42176;43.240;27.880;2022-08-24T13:07:41;15.23;;;3.95;;
56269;SDS011;42176;43.240;27.880;2022-08-24T13:12:53;38.13;;;5.30;;
56269;SDS011;42176;43.240;27.880;2022-08-24T13:23:18;19.35;;;4.13;;
56269;SDS011;42176;43.240;27.880;2022-08-24T13:28:52;31.77;;;5.07;;
56269;SDS011;42176;43.240;27.880;2022-08-24T13:31:31;20.77;;;4.15;;
56269;SDS011;42176;43.240;27.880;2022-08-24T13:50:04;13.48;;;3.72;;
56269;SDS011;42176;43.240;27.880;2022-08-24T13:55:11;18.77;;;3.50;;
56269;SDS011;42176;43.240;27.880;2022-08-24T13:57:51;15.13;;;3.15;;
56269;SDS011;42176;43.240;27.880;2022-08-24T14:00:39;29.17;;;3.67;;
56269;SDS011;42176;43.240;27.880;2022-08-24T14:06:32;42.83;;;3.85;;
56269;SDS011;42176;43.240;27.880;2022-08-24T14:09:15;26.13;;;4.85;;
56269;SDS011;42176;43.240;27.880;2022-08-24T14:15:30;25.92;;;4.38;;
56269;SDS011;42176;43.240;27.880;2022-08-24T14:18:32;15.82;;;3.70;;
56269;SDS011;42176;43.240;27.880;2022-08-24T14:21:17;21.90;;;3.92;;
56269;SDS011;42176;43.240;27.880;2022-08-24T14:23:57;26.83;;;4.43;;
56269;SDS011;42176;43.240;27.880;2022-08-24T14:42:50;16.52;;;4.95;;
56269;SDS011;42176;43.240;27.880;2022-08-24T14:48:24;21.52;;;4.15;;
56269;SDS011;42176;43.240;27.880;2022-08-24T14:54:00;25.33;;;8.27;;
56269;SDS011;42176;43.240;27.880;2022-08-24T14:56:46;18.88;;;3.85;;
56269;SDS011;42176;43.240;27.880;2022-08-24T15:07:54;23.20;;;4.18;;
56269;SDS011;42176;43.240;27.880;2022-08-24T15:10:27;16.35;;;3.60;;
56269;SDS011;42176;43.240;27.880;2022-08-24T15:13:00;20.38;;;3.80;;
56269;SDS011;42176;43.240;27.880;2022-08-24T15:15:39;15.43;;;3.28;;
56269;SDS011;42176;43.240;27.880;2022-08-24T15:23:16;19.90;;;3.38;;
56269;SDS011;42176;43.240;27.880;2022-08-24T15:25:51;28.52;;;6.25;;
56269;SDS011;42176;43.240;27.880;2022-08-24T15:28:29;14.95;;;4.30;;
56269;SDS011;42176;43.240;27.880;2022-08-24T15:31:17;16.02;;;4.45;;
56269;SDS011;42176;43.240;27.880;2022-08-24T15:36:22;16.60;;;3.60;;
56269;SDS011;42176;43.240;27.880;2022-08-24T15:38:48;14.10;;;3.40;;
56269;SDS011;42176;43.240;27.880;2022-08-24T15:41:20;14.82;;;3.90;;
56269;SDS011;42176;43.240;27.880;2022-08-24T15:48:47;36.33;;;4.28;;
56269;SDS011;42176;43.240;27.880;2022-08-24T15:53:55;26.08;;;4.38;;
56269;SDS011;42176;43.240;27.880;2022-08-24T15:59:06;22.90;;;4.00;;
56269;SDS011;42176;43.240;27.880;2022-08-24T16:01:33;18.38;;;3.80;;
56269;SDS011;42176;43.240;27.880;2022-08-24T16:07:05;27.52;;;3.95;;
56269;SDS011;42176;43.240;27.880;2022-08-24T16:09:33;23.48;;;3.53;;
56269;SDS011;42176;43.240;27.880;2022-08-24T16:12:13;25.38;;;4.22;;
56269;SDS011;42176;43.240;27.880;2022-08-24T16:14:45;25.35;;;5.38;;
56269;SDS011;42176;43.240;27.880;2022-08-24T16:19:57;28.92;;;3.60;;
56269;SDS011;42176;43.240;27.880;2022-08-24T16:22:27;22.48;;;4.65;;
56269;SDS011;42176;43.240;27.880;2022-08-24T16:30:24;20.20;;;3.80;;
56269;SDS011;42176;43.240;27.880;2022-08-24T16:32:59;23.70;;;3.60;;
56269;SDS011;42176;43.240;27.880;2022-08-24T16:35:25;21.08;;;4.60;;
56269;SDS011;42176;43.240;27.880;2022-08-24T16:37:50;23.70;;;4.03;;
56269;SDS011;42176;43.240;27.880;2022-08-24T16:40:18;30.27;;;4.22;;
56269;SDS011;42176;43.240;27.880;2022-08-24T16:42:45;30.17;;;4.53;;
56269;SDS011;42176;43.240;27.880;2022-08-24T16:45:11;35.85;;;5.63;;
56269;SDS011;42176;43.240;27.880;2022-08-24T16:47:42;33.15;;;5.55;;
56269;SDS011;42176;43.240;27.880;2022-08-24T16:50:09;38.63;;;5.10;;
56269;SDS011;42176;43.240;27.880;2022-08-24T16:52:35;43.60;;;6.18;;
56269;SDS011;42176;43.240;27.880;2022-08-24T16:55:00;24.25;;;4.22;;
56269;SDS011;42176;43.240;27.880;2022-08-24T16:57:27;30.80;;;6.05;;
56269;SDS011;42176;43.240;27.880;2022-08-24T16:59:55;32.20;;;5.30;;
56269;SDS011;42176;43.240;27.880;2022-08-24T17:02:21;31.40;;;5.05;;
56269;SDS011;42176;43.240;27.880;2022-08-24T17:04:49;51.25;;;5.68;;
56269;SDS011;42176;43.240;27.880;2022-08-24T17:07:16;33.85;;;4.05;;
56269;SDS011;42176;43.240;27.880;2022-08-24T17:09:48;33.97;;;5.70;;
56269;SDS011;42176;43.240;27.880;2022-08-24T17:12:14;31.38;;;4.60;;
56269;SDS011;42176;43.240;27.880;2022-08-24T17:14:40;37.67;;;4.70;;
56269;SDS011;42176;43.240;27.880;2022-08-24T17:17:08;30.48;;;6.22;;
56269;SDS011;42176;43.240;27.880;2022-08-24T17:19:36;43.50;;;5.25;;
56269;SDS011;42176;43.240;27.880;2022-08-24T17:22:02;29.80;;;4.30;;
56269;SDS011;42176;43.240;27.880;2022-08-24T17:24:28;31.48;;;5.07;;
56269;SDS011;42176;43.240;27.880;2022-08-24T17:26:54;31.13;;;5.32;;
56269;SDS011;42176;43.240;27.880;2022-08-24T17:29:20;49.08;;;5.18;;
56269;SDS011;42176;43.240;27.880;2022-08-24T17:31:46;36.22;;;5.20;;
56269;SDS011;42176;43.240;27.880;2022-08-24T17:34:17;39.65;;;6.00;;
56269;SDS011;42176;43.240;27.880;2022-08-24T17:36:45;39.92;;;5.15;;
56269;SDS011;42176;43.240;27.880;2022-08-24T17:39:12;29.10;;;4.97;;
56269;SDS011;42176;43.240;27.880;2022-08-24T17:41:39;41.00;;;5.82;;
56269;SDS011;42176;43.240;27.880;2022-08-24T17:44:06;32.17;;;5.32;;
56269;SDS011;42176;43.240;27.880;2022-08-24T17:46:34;37.90;;;6.32;;
56269;SDS011;42176;43.240;27.880;2022-08-24T17:49:01;44.33;;;6.90;;
56269;SDS011;42176;43.240;27.880;2022-08-24T17:51:27;51.50;;;7.38;;
56269;SDS011;42176;43.240;27.880;2022-08-24T17:53:53;50.22;;;6.05;;
56269;SDS011;42176;43.240;27.880;2022-08-24T17:56:18;46.78;;;9.30;;
56269;SDS011;42176;43.240;27.880;2022-08-24T17:58:44;37.72;;;8.07;;
56269;SDS011;42176;43.240;27.880;2022-08-24T18:01:28;52.53;;;6.50;;
56269;SDS011;42176;43.240;27.880;2022-08-24T18:03:54;53.85;;;6.88;;
56269;SDS011;42176;43.240;27.880;2022-08-24T18:06:20;57.33;;;6.85;;
56269;SDS011;42176;43.240;27.880;2022-08-24T18:08:48;60.63;;;8.30;;
56269;SDS011;42176;43.240;27.880;2022-08-24T18:11:14;48.63;;;7.00;;
56269;SDS011;42176;43.240;27.880;2022-08-24T18:13:40;64.95;;;8.35;;
56269;SDS011;42176;43.240;27.880;2022-08-24T18:16:08;60.30;;;7.97;;
56269;SDS011;42176;43.240;27.880;2022-08-24T18:18:39;59.83;;;6.90;;
56269;SDS011;42176;43.240;27.880;2022-08-24T18:21:05;64.72;;;6.07;;
56269;SDS011;42176;43.240;27.880;2022-08-24T18:23:30;58.97;;;7.25;;
56269;SDS011;42176;43.240;27.880;2022-08-24T18:25:55;44.72;;;7.05;;
56269;SDS011;42176;43.240;27.880;2022-08-24T18:28:21;57.55;;;6.47;;
56269;SDS011;42176;43.240;27.880;2022-08-24T18:30:47;39.63;;;8.45;;
56269;SDS011;42176;43.240;27.880;2022-08-24T18:33:12;44.55;;;6.38;;